Time;durP1;ratioP1;P1;durP2;ratioP2;P2;SDS_P1;SDS_P2;PMS_P1;PMS_P2;Temp;Humidity;BMP_temperature;BMP_pressure;BME280_temperature;BME280_humidity;BME280_pressure;Samples;Min_cycle;Max_cycle;Signal;HPM_P1;HPM_P2
2022/10/18 00:00:53;;;;;;;2.57;2.30;;;19.90;75.10;21.10;101706.00;;;;4969448;28;20740;-50
2022/10/18 00:03:19;;;;;;;2.10;2.00;;;19.80;75.00;21.10;101709.00;;;;4970921;28;20711;-51
2022/10/18 00:05:46;;;;;;;2.30;2.10;;;19.90;75.10;21.10;101712.00;;;;4971379;28;20180;-51
2022/10/18 00:08:12;;;;;;;2.20;2.10;;;19.90;75.10;21.10;101710.00;;;;4970137;28;20210;-51
2022/10/18 00:10:38;;;;;;;2.47;2.27;;;19.90;75.20;21.00;101716.00;;;;4970533;28;20184;-51
2022/10/18 00:13:04;;;;;;;2.10;2.00;;;19.90;75.00;21.00;101716.00;;;;4970580;28;20263;-51
2022/10/18 00:15:29;;;;;;;2.33;2.13;;;19.90;75.00;21.00;101714.00;;;;4970749;28;20756;-51
2022/10/18 00:17:55;;;;;;;2.30;2.10;;;19.80;75.00;21.10;101712.00;;;;4969925;28;20201;-51
2022/10/18 00:20:21;;;;;;;2.10;2.00;;;19.80;75.80;21.00;101714.00;;;;4970067;28;20206;-51
2022/10/18 00:22:46;;;;;;;2.17;2.03;;;19.90;75.00;21.00;101720.00;;;;4969902;28;20257;-51
2022/10/18 00:25:13;;;;;;;2.50;2.30;;;19.90;74.90;21.00;101707.00;;;;4968084;28;20189;-51
2022/10/18 00:27:39;;;;;;;2.10;2.00;;;19.90;74.90;21.00;101701.00;;;;4970224;28;20197;-51
2022/10/18 00:30:05;;;;;;;2.10;2.00;;;19.80;74.90;21.00;101691.00;;;;4970166;28;20307;-50
2022/10/18 00:32:38;;;;;;;2.30;2.10;;;19.80;74.90;21.00;101692.00;;;;4969940;28;20261;-50
2022/10/18 00:35:05;;;;;;;2.03;1.83;;;19.90;75.00;21.00;101703.00;;;;4968052;28;20180;-51
2022/10/18 00:37:31;;;;;;;2.03;1.93;;;19.90;74.90;21.00;101696.00;;;;4971261;28;20189;-50
2022/10/18 00:39:57;;;;;;;2.20;2.00;;;19.80;74.90;21.00;101690.00;;;;4970992;28;20208;-50
2022/10/18 00:42:25;;;;;;;1.93;1.83;;;19.80;74.90;21.00;101698.00;;;;4969821;28;20554;-51
2022/10/18 00:44:51;;;;;;;2.20;2.00;;;19.80;75.00;21.00;101699.00;;;;4969044;28;20181;-50
2022/10/18 00:47:17;;;;;;;2.57;2.10;;;19.80;75.00;21.00;101695.00;;;;4970010;28;20175;-50
2022/10/18 00:49:45;;;;;;;2.17;1.97;;;19.80;74.90;21.00;101696.00;;;;4968479;28;20529;-50
2022/10/18 00:52:28;;;;;;;2.33;2.13;;;19.80;74.90;21.00;101688.00;;;;4968615;28;20178;-52
2022/10/18 00:54:54;;;;;;;2.10;2.00;;;19.80;74.80;21.00;101662.00;;;;4967647;28;20231;-52
2022/10/18 00:57:19;;;;;;;2.00;1.90;;;19.80;75.20;21.00;101689.00;;;;4967929;28;20200;-52
2022/10/18 00:59:45;;;;;;;2.20;2.00;;;19.90;75.00;21.00;101691.00;;;;4968257;28;20176;-51
2022/10/18 01:02:13;;;;;;;2.30;2.10;;;19.80;74.90;21.00;101685.00;;;;4968373;28;20204;-51
2022/10/18 01:04:39;;;;;;;2.00;1.90;;;19.80;74.90;21.00;101688.00;;;;4968922;28;20188;-52
2022/10/18 01:07:58;;;;;;;2.00;1.90;;;19.80;75.00;21.00;101679.00;;;;4969256;28;20169;-51
2022/10/18 01:10:34;;;;;;;2.10;2.00;;;19.80;74.90;20.90;101667.00;;;;4968025;28;20274;-51
2022/10/18 01:13:32;;;;;;;2.00;1.90;;;19.80;74.90;20.90;101668.00;;;;4952366;28;20790;-50
2022/10/18 01:16:17;;;;;;;2.17;1.97;;;19.80;75.00;20.90;101677.00;;;;4969533;28;20741;-52
2022/10/18 01:19:10;;;;;;;2.00;1.90;;;19.80;75.00;20.90;101674.00;;;;4968925;28;20566;-50
2022/10/18 01:21:43;;;;;;;2.33;2.00;;;19.80;75.00;20.90;101681.00;;;;4967832;28;20654;-51
2022/10/18 01:24:39;;;;;;;2.00;1.90;;;19.70;74.90;20.90;101670.00;;;;4952115;28;20262;-51
2022/10/18 01:27:32;;;;;;;2.17;2.00;;;19.80;75.00;20.90;101678.00;;;;4967841;28;20579;-52
2022/10/18 01:30:27;;;;;;;2.23;2.03;;;19.80;75.00;20.90;101671.00;;;;4968818;28;20164;-52
2022/10/18 01:32:55;;;;;;;2.10;2.00;;;19.80;74.90;20.90;101660.00;;;;4968143;28;20216;-51
2022/10/18 01:35:34;;;;;;;1.90;1.80;;;19.70;74.90;20.90;101643.00;;;;4967897;28;20172;-50
2022/10/18 01:38:01;;;;;;;2.17;2.00;;;19.80;75.00;20.90;101659.00;;;;4952418;28;20196;-51
2022/10/18 01:40:27;;;;;;;3.00;2.00;;;19.80;75.00;20.90;101663.00;;;;4952136;28;20695;-51
2022/10/18 01:42:53;;;;;;;2.30;2.10;;;19.80;74.90;20.90;101668.00;;;;4967920;28;20182;-50
2022/10/18 01:45:18;;;;;;;2.10;2.00;;;19.80;75.00;20.90;101669.00;;;;4966997;28;20179;-51
2022/10/18 01:47:45;;;;;;;2.07;1.97;;;19.70;74.90;20.90;101672.00;;;;4951622;28;20201;-50
2022/10/18 01:50:11;;;;;;;1.90;1.80;;;19.70;74.90;20.90;101673.00;;;;4967622;28;20642;-51
2022/10/18 01:52:48;;;;;;;2.20;2.00;;;19.80;75.00;20.90;101670.00;;;;4969048;28;20184;-51
2022/10/18 01:55:13;;;;;;;2.10;1.90;;;19.80;75.00;20.90;101667.00;;;;4968252;28;20211;-51
2022/10/18 01:57:44;;;;;;;2.20;2.00;;;19.70;74.90;20.90;101654.00;;;;4971076;28;20205;-51
2022/10/18 02:00:20;;;;;;;2.00;1.90;;;19.70;74.90;20.90;101679.00;;;;4971383;28;20651;-52
2022/10/18 02:03:03;;;;;;;2.17;1.97;;;19.80;75.00;20.90;101678.00;;;;4971400;28;20169;-51
2022/10/18 02:05:55;;;;;;;2.00;1.90;;;19.70;74.90;20.90;101668.00;;;;4971176;28;20207;-51
2022/10/18 02:08:37;;;;;;;2.27;1.70;;;19.70;74.90;20.80;101675.00;;;;4971622;28;20195;-51
2022/10/18 02:11:13;;;;;;;2.00;1.90;;;19.70;74.90;20.80;101665.00;;;;4972571;28;20931;-50
2022/10/18 02:13:58;;;;;;;2.23;1.90;;;19.70;74.90;20.80;101652.00;;;;4970761;28;20161;-51
2022/10/18 02:16:38;;;;;;;1.90;1.80;;;19.70;75.00;20.80;101666.00;;;;4971341;28;20162;-50
2022/10/18 02:19:13;;;;;;;2.00;1.90;;;19.70;75.00;20.80;101663.00;;;;4972910;28;20302;-52
2022/10/18 02:21:41;;;;;;;2.00;1.90;;;19.70;75.00;20.80;101662.00;;;;4971328;28;20208;-50
2022/10/18 02:24:06;;;;;;;1.83;1.73;;;19.70;74.90;20.80;101666.00;;;;4972277;28;20255;-50
2022/10/18 02:26:32;;;;;;;1.80;1.70;;;19.60;74.80;20.80;101656.00;;;;4973286;28;20528;-51
2022/10/18 02:28:58;;;;;;;2.00;1.90;;;19.70;74.90;20.80;101637.00;;;;4971146;28;20565;-52
2022/10/18 02:31:43;;;;;;;2.00;1.90;;;19.70;74.90;20.80;101656.00;;;;4970952;28;20773;-51
2022/10/18 02:34:38;;;;;;;2.03;1.93;;;19.70;75.00;20.80;101664.00;;;;4971393;28;20173;-51
2022/10/18 02:37:04;;;;;;;1.80;1.70;;;19.70;74.90;20.80;101656.00;;;;4965433;28;20197;-50
2022/10/18 02:39:39;;;;;;;1.90;1.80;;;19.70;74.90;20.80;101653.00;;;;4970914;28;20546;-50
2022/10/18 02:42:05;;;;;;;2.20;1.80;;;19.70;74.90;20.80;101657.00;;;;4971741;28;20688;-51
2022/10/18 02:44:33;;;;;;;2.00;1.60;;;19.60;74.70;20.80;101651.00;;;;4971448;28;20650;-52
2022/10/18 02:46:58;;;;;;;3.50;1.90;;;19.60;74.90;20.80;101655.00;;;;4972282;28;20199;-50
2022/10/18 02:49:24;;;;;;;2.03;1.80;;;19.70;75.00;20.80;101655.00;;;;4971337;28;20691;-51
2022/10/18 02:51:50;;;;;;;1.80;1.70;;;19.70;75.10;20.80;101671.00;;;;4971756;28;20587;-50
2022/10/18 02:54:15;;;;;;;1.90;1.80;;;19.70;75.00;20.60;101664.00;;;;4971301;28;20227;-52
2022/10/18 02:56:41;;;;;;;2.03;1.93;;;19.70;75.10;20.80;101661.00;;;;4971361;28;20187;-51
2022/10/18 02:59:07;;;;;;;1.90;1.80;;;19.60;74.90;20.80;101664.00;;;;4971307;28;20196;-51
2022/10/18 03:01:34;;;;;;;1.90;1.80;;;19.70;75.10;20.80;101670.00;;;;4971359;28;20203;-52
2022/10/18 03:04:01;;;;;;;2.03;1.83;;;19.70;75.10;20.80;101668.00;;;;4971062;28;20613;-51
2022/10/18 03:06:27;;;;;;;2.00;1.90;;;19.60;75.00;20.80;101663.00;;;;4971692;28;20189;-50
2022/10/18 03:08:52;;;;;;;1.90;1.80;;;19.60;75.00;20.80;101663.00;;;;4971324;28;20589;-50
2022/10/18 03:11:18;;;;;;;1.90;1.80;;;19.60;75.00;20.80;101674.00;;;;4971771;28;20174;-51
2022/10/18 03:13:44;;;;;;;1.80;1.70;;;19.60;75.10;20.70;101664.00;;;;4969735;28;20196;-51
2022/10/18 03:16:10;;;;;;;1.90;1.80;;;19.60;75.00;20.70;101674.00;;;;4971356;28;20269;-51
2022/10/18 03:18:36;;;;;;;1.80;1.70;;;19.60;75.10;20.70;101671.00;;;;4971256;28;20288;-51
2022/10/18 03:21:05;;;;;;;1.93;1.80;;;19.60;75.10;20.70;101677.00;;;;4971154;28;20339;-51
2022/10/18 03:23:31;;;;;;;1.90;1.80;;;19.60;75.00;20.70;101675.00;;;;4970650;28;20170;-50
2022/10/18 03:25:57;;;;;;;1.97;1.87;;;19.60;75.00;20.70;101676.00;;;;4971282;28;20540;-50
2022/10/18 03:28:23;;;;;;;2.10;1.90;;;19.70;75.10;20.70;101676.00;;;;4953562;28;20200;-51
2022/10/18 03:30:48;;;;;;;1.80;1.70;;;19.70;74.90;20.70;101678.00;;;;4971123;28;20702;-50
2022/10/18 03:33:14;;;;;;;3.90;2.00;;;19.70;74.70;20.80;101684.00;;;;4969467;28;20208;-52
2022/10/18 03:35:40;;;;;;;2.40;1.90;;;19.70;74.60;20.70;101687.00;;;;4969381;28;20223;-51
2022/10/18 03:38:05;;;;;;;2.67;1.70;;;19.70;74.50;20.70;101684.00;;;;4970963;28;20194;-51
2022/10/18 03:40:31;;;;;;;4.57;2.00;;;19.70;74.50;20.80;101685.00;;;;4970747;28;20195;-51
2022/10/18 03:42:57;;;;;;;3.13;2.00;;;19.60;74.50;20.80;101678.00;;;;4969848;28;20171;-51
2022/10/18 03:45:22;;;;;;;3.83;1.87;;;19.70;74.60;20.80;101684.00;;;;4970632;28;20176;-51
2022/10/18 03:47:48;;;;;;;2.20;1.70;;;19.70;74.60;20.70;101679.00;;;;4971365;28;20631;-50
2022/10/18 03:50:14;;;;;;;2.23;1.80;;;19.60;74.60;20.70;101676.00;;;;4971193;28;20292;-51
2022/10/18 03:52:40;;;;;;;2.00;1.90;;;19.60;74.60;20.70;101670.00;;;;4971376;28;20217;-51
2022/10/18 03:55:06;;;;;;;2.07;1.80;;;19.60;74.70;20.70;101674.00;;;;4971019;28;20169;-51
2022/10/18 03:57:32;;;;;;;4.40;1.80;;;19.60;74.70;20.70;101661.00;;;;4970883;28;20306;-50
2022/10/18 03:59:57;;;;;;;2.17;1.90;;;19.60;74.70;20.70;101670.00;;;;4967922;28;20268;-52
2022/10/18 04:02:24;;;;;;;2.13;1.90;;;19.60;74.70;20.70;101672.00;;;;4969444;28;20759;-50
2022/10/18 04:04:50;;;;;;;2.83;1.80;;;19.60;74.60;20.70;101668.00;;;;4969948;28;20175;-50
2022/10/18 04:07:15;;;;;;;2.87;1.90;;;19.60;74.70;20.70;101661.00;;;;4969966;28;20277;-51
2022/10/18 04:09:41;;;;;;;3.77;1.87;;;19.60;74.70;20.70;101665.00;;;;4970001;28;20154;-51
2022/10/18 04:12:07;;;;;;;5.17;1.90;;;19.60;74.80;20.70;101667.00;;;;4968434;28;20877;-51
2022/10/18 04:14:32;;;;;;;2.87;1.90;;;19.50;74.70;20.70;101677.00;;;;4970984;28;20177;-51
2022/10/18 04:16:58;;;;;;;1.90;1.80;;;19.50;74.80;20.60;101677.00;;;;4971632;28;20173;-51
2022/10/18 04:19:24;;;;;;;3.17;1.93;;;19.50;74.70;20.60;101674.00;;;;4969160;28;20189;-51
2022/10/18 04:21:50;;;;;;;2.17;1.97;;;19.60;74.90;20.60;101664.00;;;;4969904;28;20687;-50
2022/10/18 04:24:16;;;;;;;2.83;1.80;;;19.60;74.90;20.60;101625.00;;;;4970238;28;20177;-51
2022/10/18 04:26:42;;;;;;;1.70;1.60;;;19.60;74.90;20.60;101665.00;;;;4952218;28;20424;-51
2022/10/18 04:29:08;;;;;;;4.10;2.00;;;19.50;74.80;20.60;101654.00;;;;4950297;29;20198;-50
2022/10/18 04:31:33;;;;;;;3.60;2.10;;;19.50;74.90;20.60;101653.00;;;;4949243;29;20171;-51
2022/10/18 04:33:59;;;;;;;3.73;1.60;;;19.50;75.00;20.60;101656.00;;;;4963711;28;20769;-52
2022/10/18 04:36:25;;;;;;;3.07;1.93;;;19.50;75.00;20.60;101663.00;;;;4969109;28;20186;-51
2022/10/18 04:38:51;;;;;;;2.20;1.80;;;19.50;74.90;20.60;101669.00;;;;4970140;28;20193;-51
2022/10/18 04:41:16;;;;;;;3.43;1.73;;;19.50;74.90;20.60;101665.00;;;;4969512;28;20204;-51
2022/10/18 04:43:42;;;;;;;2.07;1.87;;;19.50;74.90;20.60;101669.00;;;;4969469;28;20196;-51
2022/10/18 04:46:08;;;;;;;2.60;2.00;;;19.50;74.90;20.60;101661.00;;;;4959789;28;20677;-51
2022/10/18 04:48:33;;;;;;;3.00;1.83;;;19.50;74.90;20.60;101662.00;;;;4954893;28;20228;-51
2022/10/18 04:50:59;;;;;;;4.27;2.10;;;19.50;74.90;20.60;101670.00;;;;4969632;28;20183;-51
2022/10/18 04:53:25;;;;;;;5.20;1.87;;;19.60;74.90;20.60;101663.00;;;;4969737;28;20175;-51
2022/10/18 04:55:51;;;;;;;4.93;2.00;;;19.60;74.70;20.60;101667.00;;;;4968859;28;20180;-51
2022/10/18 04:58:17;;;;;;;3.20;1.90;;;19.60;74.80;20.60;101668.00;;;;4969724;28;20214;-51
2022/10/18 05:00:42;;;;;;;3.73;2.10;;;19.60;74.70;20.60;101673.00;;;;4969514;28;20203;-50
2022/10/18 05:03:09;;;;;;;4.03;1.90;;;19.60;74.70;20.60;101664.00;;;;4968630;28;20173;-50
2022/10/18 05:05:34;;;;;;;2.73;1.90;;;19.60;74.90;20.60;101663.00;;;;4967708;28;20197;-51
2022/10/18 05:08:00;;;;;;;2.33;1.97;;;19.60;74.90;20.60;101676.00;;;;4967864;28;20851;-51
2022/10/18 05:10:26;;;;;;;3.50;1.90;;;19.50;74.90;20.60;101682.00;;;;4968812;28;20181;-52
2022/10/18 05:12:51;;;;;;;2.20;1.77;;;19.50;74.90;20.60;101682.00;;;;4970042;28;20171;-52
2022/10/18 05:15:17;;;;;;;3.83;2.00;;;19.50;74.90;20.60;101685.00;;;;4970122;28;20180;-50
2022/10/18 05:17:43;;;;;;;2.23;1.73;;;19.50;74.80;20.60;101690.00;;;;4970123;28;20194;-52
2022/10/18 05:20:09;;;;;;;2.20;2.00;;;19.60;75.00;20.60;101673.00;;;;4969774;28;20655;-51
2022/10/18 05:22:34;;;;;;;3.40;1.70;;;19.50;74.90;20.60;101689.00;;;;4968533;28;20170;-50
2022/10/18 05:25:00;;;;;;;1.93;1.83;;;19.50;74.90;20.60;101685.00;;;;4969133;28;20665;-52
2022/10/18 05:27:27;;;;;;;2.40;2.00;;;19.60;75.00;20.60;101689.00;;;;4969740;28;20173;-51
2022/10/18 05:29:53;;;;;;;2.20;2.00;;;19.50;74.90;20.60;101685.00;;;;4969802;28;20879;-52
2022/10/18 05:32:19;;;;;;;1.90;1.80;;;19.50;74.90;20.60;101673.00;;;;4973429;28;20163;-51
2022/10/18 05:34:44;;;;;;;3.93;1.73;;;19.50;74.90;20.60;101679.00;;;;4972972;28;20490;-51
2022/10/18 05:37:10;;;;;;;2.00;1.80;;;19.50;75.00;20.60;101687.00;;;;4973341;28;20185;-51
2022/10/18 05:39:37;;;;;;;2.37;2.17;;;19.50;75.10;20.60;101694.00;;;;4973387;28;20240;-50
2022/10/18 05:42:03;;;;;;;2.43;1.80;;;19.50;75.20;20.60;101693.00;;;;4973228;28;20203;-52
2022/10/18 05:44:29;;;;;;;2.00;1.80;;;19.50;75.20;20.60;101699.00;;;;4972434;28;20163;-52
2022/10/18 05:46:55;;;;;;;2.00;1.90;;;19.50;75.20;20.60;101694.00;;;;4972976;28;20227;-51
2022/10/18 05:49:20;;;;;;;2.47;1.90;;;19.50;75.30;20.60;101703.00;;;;4973196;28;20232;-51
2022/10/18 05:51:46;;;;;;;2.27;2.00;;;19.50;75.20;20.60;101697.00;;;;4971720;28;20185;-51
2022/10/18 05:54:12;;;;;;;2.00;1.80;;;19.50;75.20;20.60;101695.00;;;;4972541;28;20177;-51
2022/10/18 05:56:38;;;;;;;2.53;1.97;;;19.50;75.20;20.40;101700.00;;;;4972818;28;20196;-51
2022/10/18 05:59:08;;;;;;;2.67;1.90;;;19.50;75.20;20.60;101696.00;;;;4972645;28;20188;-51
2022/10/18 06:01:35;;;;;;;2.17;1.97;;;19.50;75.20;20.60;101702.00;;;;4975356;28;20196;-51
2022/10/18 06:04:01;;;;;;;2.13;1.93;;;19.50;75.30;20.60;101702.00;;;;4973042;28;20167;-50
2022/10/18 06:06:26;;;;;;;2.70;2.00;;;19.40;75.60;20.60;101701.00;;;;4972779;28;20666;-50
2022/10/18 06:08:52;;;;;;;2.10;1.90;;;19.40;75.30;20.60;101693.00;;;;4972895;28;20198;-49
2022/10/18 06:11:18;;;;;;;3.47;1.97;;;19.40;75.30;20.50;101701.00;;;;4972809;28;20178;-51
2022/10/18 06:13:46;;;;;;;2.40;2.07;;;19.40;75.30;20.50;101706.00;;;;4972810;28;20213;-50
2022/10/18 06:16:12;;;;;;;1.90;1.80;;;19.40;75.40;20.50;101699.00;;;;4972927;28;20173;-50
2022/10/18 06:18:38;;;;;;;2.17;1.80;;;19.40;75.40;20.50;101704.00;;;;4972999;28;20201;-50
2022/10/18 06:21:04;;;;;;;2.00;1.80;;;19.30;75.30;20.50;101702.00;;;;4971243;28;20676;-50
2022/10/18 06:23:30;;;;;;;2.03;1.90;;;19.40;75.40;20.50;101704.00;;;;4972702;28;20183;-50
2022/10/18 06:26:03;;;;;;;2.10;1.90;;;19.40;75.50;20.50;101710.00;;;;4972932;28;20172;-50
2022/10/18 06:28:29;;;;;;;4.17;2.00;;;19.40;75.40;20.50;101713.00;;;;4972771;28;20663;-50
2022/10/18 06:30:56;;;;;;;2.17;1.97;;;19.40;75.50;20.50;101703.00;;;;4972285;28;20252;-52
2022/10/18 06:33:22;;;;;;;2.97;1.80;;;19.40;75.60;20.50;101717.00;;;;4972245;28;20263;-52
2022/10/18 06:36:04;;;;;;;1.90;1.70;;;19.40;75.60;20.50;101724.00;;;;4972324;28;20181;-52
2022/10/18 06:38:30;;;;;;;2.20;1.80;;;19.40;75.60;20.50;101720.00;;;;4972393;28;20585;-50
2022/10/18 06:40:56;;;;;;;1.97;1.80;;;19.40;75.60;20.50;101726.00;;;;4971782;28;20194;-50
2022/10/18 06:43:22;;;;;;;1.90;1.80;;;19.40;75.60;20.50;101728.00;;;;4970467;28;20193;-50
2022/10/18 06:45:48;;;;;;;2.50;1.80;;;19.40;75.70;20.50;101733.00;;;;4972361;28;20534;-51
2022/10/18 06:48:14;;;;;;;2.10;1.90;;;19.40;75.60;20.50;101738.00;;;;4972142;28;20189;-50
2022/10/18 06:50:40;;;;;;;1.93;1.77;;;19.40;75.60;20.50;101737.00;;;;4972018;28;20185;-52
2022/10/18 06:53:07;;;;;;;2.20;2.00;;;19.40;75.60;20.50;101736.00;;;;4971414;28;20174;-51
2022/10/18 06:55:33;;;;;;;2.10;1.90;;;19.40;75.70;20.30;101737.00;;;;4972028;28;20654;-51
2022/10/18 06:57:59;;;;;;;1.80;1.70;;;19.30;75.60;20.50;101739.00;;;;4971632;28;20205;-51
2022/10/18 07:00:25;;;;;;;2.20;2.00;;;19.40;75.70;20.50;101744.00;;;;4971705;28;20177;-50
2022/10/18 07:02:50;;;;;;;2.10;1.80;;;19.40;75.60;20.50;101745.00;;;;4971113;28;20176;-51
2022/10/18 07:05:16;;;;;;;2.40;1.77;;;19.40;75.60;20.50;101751.00;;;;4971453;28;20719;-51
2022/10/18 07:07:42;;;;;;;1.90;1.80;;;19.30;75.60;20.50;101742.00;;;;4971810;28;20654;-51
2022/10/18 07:10:08;;;;;;;2.17;1.70;;;19.40;75.70;20.50;101751.00;;;;4972317;28;20235;-51
2022/10/18 07:12:34;;;;;;;3.00;1.90;;;19.30;75.60;20.50;101743.00;;;;4971789;28;20244;-51
2022/10/18 07:14:59;;;;;;;2.27;1.97;;;19.30;75.70;20.40;101747.00;;;;4970456;28;20182;-52
2022/10/18 07:17:26;;;;;;;1.97;1.80;;;19.30;75.70;20.40;101743.00;;;;4971621;28;20286;-51
2022/10/18 07:19:51;;;;;;;3.90;1.90;;;19.30;75.70;20.40;101750.00;;;;4970557;28;20721;-51
2022/10/18 07:22:17;;;;;;;1.93;1.73;;;19.30;75.70;20.40;101758.00;;;;4970899;28;20208;-52
2022/10/18 07:24:43;;;;;;;1.80;1.70;;;19.30;75.70;20.40;101759.00;;;;4969460;28;20264;-51
2022/10/18 07:27:08;;;;;;;1.80;1.70;;;19.30;76.50;20.40;101764.00;;;;4971458;28;20260;-52
2022/10/18 07:29:37;;;;;;;2.33;2.07;;;19.30;75.70;20.40;101774.00;;;;4962752;28;20555;-50
2022/10/18 07:32:03;;;;;;;1.70;1.60;;;19.30;75.70;20.40;101772.00;;;;4909692;28;20286;-50
2022/10/18 07:34:29;;;;;;;2.63;2.10;;;19.30;75.70;20.40;101774.00;;;;4989751;28;20561;-50
2022/10/18 07:36:54;;;;;;;2.30;1.80;;;19.40;75.80;20.50;101776.00;;;;4970994;28;20181;-54
2022/10/18 07:39:20;;;;;;;3.20;1.90;;;19.40;75.60;20.50;101781.00;;;;4970448;28;20288;-50
2022/10/18 07:41:46;;;;;;;6.37;2.20;;;19.40;75.60;20.50;101787.00;;;;4971805;28;20202;-50
2022/10/18 07:44:12;;;;;;;4.03;1.90;;;19.40;75.40;20.50;101787.00;;;;4972363;28;20201;-51
2022/10/18 07:46:38;;;;;;;5.10;2.47;;;19.50;75.40;20.50;101792.00;;;;4970548;28;20169;-51
2022/10/18 07:49:03;;;;;;;5.10;1.90;;;19.40;75.40;20.50;101793.00;;;;4966639;28;20665;-50
2022/10/18 07:51:31;;;;;;;3.83;1.90;;;19.40;75.50;20.50;101800.00;;;;4960650;28;20185;-50
2022/10/18 07:53:58;;;;;;;4.30;2.00;;;19.40;75.40;20.40;101798.00;;;;4962261;28;20653;-50
2022/10/18 07:56:24;;;;;;;3.27;2.10;;;19.40;75.50;20.50;101796.00;;;;4968747;28;20189;-51
2022/10/18 07:58:51;;;;;;;5.93;2.17;;;19.40;75.60;20.50;101789.00;;;;4970249;28;20413;-50
2022/10/18 08:01:17;;;;;;;2.43;2.03;;;19.30;75.60;20.50;101798.00;;;;4970646;28;20279;-51
2022/10/18 08:03:43;;;;;;;6.37;1.93;;;19.30;75.70;20.50;101799.00;;;;4970663;28;20181;-50
2022/10/18 08:06:10;;;;;;;2.20;2.00;;;19.30;75.70;20.40;101796.00;;;;4970382;28;20619;-50
2022/10/18 08:08:38;;;;;;;4.43;1.97;;;19.30;75.70;20.40;101803.00;;;;4970613;28;20199;-50
2022/10/18 08:11:10;;;;;;;3.40;2.10;;;19.30;75.70;20.40;101815.00;;;;4970756;28;20177;-50
2022/10/18 08:13:36;;;;;;;3.37;2.37;;;19.30;75.70;20.40;101809.00;;;;4968569;28;20173;-50
2022/10/18 08:16:09;;;;;;;2.30;1.83;;;19.30;75.70;20.40;101816.00;;;;5142876;27;20673;-50
2022/10/18 08:18:35;;;;;;;1.93;1.80;;;19.30;75.70;20.50;101807.00;;;;5106214;28;20192;-52
2022/10/18 08:21:03;;;;;;;2.60;1.90;;;19.30;75.70;20.50;101812.00;;;;5105010;28;20176;-51
2022/10/18 08:23:29;;;;;;;6.53;2.03;;;19.40;75.70;20.50;101817.00;;;;5105989;28;20172;-51
2022/10/18 08:25:55;;;;;;;4.23;2.10;;;19.40;75.60;20.50;101826.00;;;;5106251;28;20173;-51
2022/10/18 08:28:20;;;;;;;3.47;1.80;;;19.40;75.60;20.50;101826.00;;;;5105709;28;20232;-51
2022/10/18 08:30:46;;;;;;;3.53;2.00;;;19.40;75.60;20.50;101825.00;;;;5106544;28;20168;-52
2022/10/18 08:33:12;;;;;;;3.67;2.10;;;19.40;75.80;20.50;101825.00;;;;5106243;28;20164;-50
2022/10/18 08:35:37;;;;;;;3.53;2.10;;;19.40;75.90;20.50;101835.00;;;;5104608;28;20192;-51
2022/10/18 08:38:03;;;;;;;3.17;1.97;;;19.40;76.00;20.50;101831.00;;;;5106237;28;20196;-50
2022/10/18 08:40:41;;;;;;;5.37;1.97;;;19.30;76.60;20.40;101833.00;;;;5106610;28;20174;-50
2022/10/18 08:43:16;;;;;;;3.50;2.00;;;19.30;75.80;20.40;101839.00;;;;5105530;28;20173;-51
2022/10/18 08:45:43;;;;;;;5.20;2.23;;;19.30;75.80;20.40;101848.00;;;;5109966;28;20217;-50
2022/10/18 08:48:28;;;;;;;3.67;2.10;;;19.30;75.90;20.40;101842.00;;;;5111309;28;20209;-51
2022/10/18 08:50:54;;;;;;;3.30;2.10;;;19.30;76.00;20.40;101856.00;;;;5100888;28;20188;-51
2022/10/18 08:53:27;;;;;;;4.70;1.97;;;19.20;75.90;20.40;101847.00;;;;5105925;28;20230;-51
2022/10/18 08:55:57;;;;;;;5.07;2.10;;;19.30;76.00;20.40;101860.00;;;;5090008;28;20246;-52
2022/10/18 08:58:25;;;;;;;5.13;2.20;;;19.30;75.80;20.40;101860.00;;;;5106122;28;20744;-52
2022/10/18 09:01:45;;;;;;;3.67;2.00;;;19.30;76.00;20.40;101869.00;;;;5105075;28;20663;-52
2022/10/18 09:04:29;;;;;;;5.30;2.03;;;19.30;76.00;20.40;101865.00;;;;5083560;28;20192;-50
2022/10/18 09:07:25;;;;;;;4.97;2.10;;;19.20;75.80;20.30;101863.00;;;;5105874;28;20206;-51
2022/10/18 09:10:25;;;;;;;3.97;2.10;;;19.20;75.80;20.40;101871.00;;;;5106046;28;20172;-52
2022/10/18 09:13:36;;;;;;;7.33;2.10;;;19.20;75.80;20.30;101859.00;;;;5105418;28;20192;-52
2022/10/18 09:16:07;;;;;;;8.17;2.27;;;19.20;75.80;20.30;101864.00;;;;5105041;28;20216;-51
2022/10/18 09:19:01;;;;;;;6.53;2.20;;;19.20;75.70;20.30;101856.00;;;;5088398;28;20679;-52
2022/10/18 09:21:48;;;;;;;6.17;2.10;;;19.20;75.70;20.30;101878.00;;;;5106198;28;20145;-52
2022/10/18 09:24:30;;;;;;;3.73;2.00;;;19.20;75.60;20.30;101860.00;;;;5088955;28;20179;-51
2022/10/18 09:27:04;;;;;;;3.63;1.97;;;19.20;75.70;20.30;101885.00;;;;5082825;28;20154;-51
2022/10/18 09:30:02;;;;;;;4.37;2.10;;;19.20;75.70;20.30;101886.00;;;;5095303;28;20189;-52
2022/10/18 09:32:51;;;;;;;6.03;2.17;;;19.20;75.70;20.30;101878.00;;;;5091031;28;20162;-51
2022/10/18 09:35:26;;;;;;;5.60;2.10;;;19.20;75.60;20.30;101874.00;;;;5090833;28;20239;-51
2022/10/18 09:38:03;;;;;;;3.57;1.90;;;19.20;75.60;20.30;101860.00;;;;5090816;28;20224;-51
2022/10/18 09:40:32;;;;;;;7.13;2.27;;;19.20;75.70;20.30;101871.00;;;;5075458;28;20160;-51
2022/10/18 09:43:04;;;;;;;3.70;2.20;;;19.20;75.60;20.30;101873.00;;;;5073733;28;20855;-51
2022/10/18 09:45:34;;;;;;;6.50;2.13;;;19.20;75.60;20.30;101872.00;;;;5090249;28;20161;-51
2022/10/18 09:48:16;;;;;;;3.80;2.23;;;19.20;75.60;20.30;101885.00;;;;5090436;28;20564;-51
2022/10/18 09:50:53;;;;;;;4.80;2.13;;;19.20;75.60;20.30;101872.00;;;;5091573;28;20199;-51
2022/10/18 09:53:34;;;;;;;4.30;2.30;;;19.20;75.60;20.30;101875.00;;;;5090031;28;20161;-51
2022/10/18 09:56:23;;;;;;;3.87;2.10;;;19.30;75.60;20.30;101874.00;;;;5090174;28;20181;-51
2022/10/18 09:58:50;;;;;;;3.70;2.20;;;19.20;75.60;20.30;101898.00;;;;5025263;28;20205;-52
2022/10/18 10:01:27;;;;;;;3.10;2.00;;;19.20;75.50;20.30;101890.00;;;;5091239;28;20184;-50
2022/10/18 10:03:53;;;;;;;5.63;2.03;;;19.30;75.70;20.30;101895.00;;;;5088827;28;20165;-51
2022/10/18 10:06:33;;;;;;;5.63;2.20;;;19.20;75.40;20.40;101888.00;;;;5081147;28;20170;-53
2022/10/18 10:09:15;;;;;;;6.33;2.30;;;19.30;75.40;20.40;101890.00;;;;5089855;28;20636;-51
2022/10/18 10:11:49;;;;;;;4.73;2.10;;;19.30;75.30;20.40;101891.00;;;;5089583;28;20215;-52
2022/10/18 10:14:22;;;;;;;7.87;2.30;;;19.30;75.20;20.40;101896.00;;;;5090325;28;20557;-51
2022/10/18 10:16:53;;;;;;;7.63;2.50;;;19.30;75.30;20.40;101887.00;;;;5091109;28;20212;-51
2022/10/18 10:19:33;;;;;;;9.67;2.40;;;19.40;75.40;20.50;101896.00;;;;5089480;28;20535;-50
2022/10/18 10:22:10;;;;;;;10.20;2.70;;;19.50;75.30;20.50;101900.00;;;;5089122;28;20167;-51
2022/10/18 10:24:45;;;;;;;9.37;2.43;;;19.60;75.10;20.50;101907.00;;;;5088466;28;20160;-51
2022/10/18 10:27:20;;;;;;;7.27;2.90;;;19.70;75.10;20.60;101907.00;;;;5088947;28;20541;-51
2022/10/18 10:29:46;;;;;;;8.70;2.60;;;19.90;75.00;20.70;101890.00;;;;5082737;28;20245;-51
2022/10/18 10:32:16;;;;;;;6.60;2.40;;;20.00;74.90;20.70;101897.00;;;;5088855;28;20179;-52
2022/10/18 10:34:42;;;;;;;5.57;2.20;;;20.10;74.90;20.80;101901.00;;;;5089902;28;20220;-51
2022/10/18 10:37:40;;;;;;;8.03;2.57;;;20.20;74.90;20.90;101900.00;;;;5089422;28;20173;-52
2022/10/18 10:40:13;;;;;;;7.87;2.60;;;20.10;74.90;20.90;101919.00;;;;5034068;28;20185;-50
2022/10/18 10:43:05;;;;;;;11.43;2.70;;;20.20;74.90;20.90;101911.00;;;;5090435;28;20158;-52
2022/10/18 10:45:42;;;;;;;9.10;2.80;;;20.20;74.90;20.90;101908.00;;;;5089929;28;20181;-52
2022/10/18 10:48:15;;;;;;;8.00;2.30;;;20.20;74.90;21.00;101912.00;;;;5088746;28;20193;-51
2022/10/18 10:51:09;;;;;;;8.87;2.70;;;20.20;75.10;21.00;101918.00;;;;5088487;28;20181;-50
2022/10/18 10:53:50;;;;;;;7.60;2.53;;;20.20;75.30;21.00;101907.00;;;;5068245;28;20592;-52
2022/10/18 10:56:26;;;;;;;10.03;2.90;;;20.20;75.30;21.00;101906.00;;;;5087773;28;20180;-50
2022/10/18 10:58:52;;;;;;;5.73;2.70;;;20.20;75.40;21.00;101906.00;;;;5039116;28;20191;-50
2022/10/18 11:01:29;;;;;;;6.17;2.63;;;20.30;76.20;21.00;101909.00;;;;5088919;28;20175;-51